createdAt,value
2023-01-17T00:01:30.717Z,100.00
2023-01-17T00:04:16.008Z,100.00
2023-01-17T00:07:01.547Z,100.00
2023-01-17T00:09:46.863Z,100.00
2023-01-17T00:12:14.169Z,100.00
2023-01-17T00:14:40.991Z,100.00
2023-01-17T00:17:07.827Z,100.00
2023-01-17T00:19:53.087Z,100.00
2023-01-17T00:22:41.096Z,100.00
2023-01-17T00:25:33.121Z,100.00
2023-01-17T00:27:59.953Z,100.00
2023-01-17T00:30:26.750Z,100.00
2023-01-17T00:32:53.517Z,100.00
2023-01-17T00:35:20.660Z,100.00
2023-01-17T00:37:50.151Z,100.00
2023-01-17T00:40:16.926Z,100.00
2023-01-17T00:42:43.630Z,100.00
2023-01-17T00:45:28.952Z,100.00
2023-01-17T00:48:14.204Z,100.00
2023-01-17T00:50:59.605Z,100.00
2023-01-17T00:53:44.800Z,100.00
2023-01-17T00:56:30.350Z,100.00
2023-01-17T00:59:15.664Z,100.00
2023-01-17T01:02:01.027Z,100.00
2023-01-17T01:04:46.393Z,100.00
2023-01-17T01:07:31.886Z,100.00
2023-01-17T01:10:17.162Z,100.00
2023-01-17T01:13:02.614Z,100.00
2023-01-17T01:15:47.776Z,100.00
2023-01-17T01:18:33.115Z,100.00
2023-01-17T01:21:22.115Z,100.00
2023-01-17T01:24:07.548Z,100.00
2023-01-17T01:26:52.640Z,100.00
2023-01-17T01:29:37.860Z,100.00
2023-01-17T01:32:23.073Z,100.00
2023-01-17T01:34:49.996Z,100.00
2023-01-17T01:37:16.819Z,100.00
2023-01-17T01:39:43.666Z,100.00
2023-01-17T01:42:16.775Z,100.00
2023-01-17T01:44:51.445Z,100.00
2023-01-17T01:47:39.220Z,100.00
2023-01-17T01:50:07.877Z,100.00
2023-01-17T01:52:35.252Z,100.00
2023-01-17T01:55:08.084Z,100.00
2023-01-17T01:57:38.204Z,100.00
2023-01-17T02:00:08.614Z,100.00
2023-01-17T02:02:35.350Z,100.00
2023-01-17T02:05:04.615Z,100.00
2023-01-17T02:07:33.813Z,100.00
2023-01-17T02:10:00.599Z,100.00
2023-01-17T02:12:27.565Z,100.00
2023-01-17T02:14:54.431Z,100.00
2023-01-17T02:17:42.441Z,100.00
2023-01-17T02:20:44.729Z,100.00
2023-01-17T02:23:35.299Z,100.00
2023-01-17T02:26:39.824Z,100.00
2023-01-17T02:29:25.282Z,100.00
2023-01-17T02:32:13.124Z,100.00
2023-01-17T02:35:25.162Z,100.00
2023-01-17T02:38:14.725Z,100.00
2023-01-17T02:40:57.032Z,100.00
2023-01-17T02:43:24.135Z,100.00
2023-01-17T02:45:51.083Z,100.00
2023-01-17T02:48:19.717Z,100.00
2023-01-17T02:50:49.533Z,99.98
2023-01-17T02:53:31.474Z,99.78
2023-01-17T02:56:08.436Z,99.73
2023-01-17T02:58:43.969Z,99.52
2023-01-17T03:01:54.371Z,99.41
2023-01-17T03:04:34.498Z,99.18
2023-01-17T03:07:03.367Z,99.15
2023-01-17T03:09:30.544Z,99.74
2023-01-17T03:11:58.265Z,99.51
2023-01-17T03:14:25.215Z,99.61
2023-01-17T03:16:52.059Z,99.50
2023-01-17T03:19:19.187Z,99.52
2023-01-17T03:21:46.057Z,99.54
2023-01-17T03:24:12.793Z,99.24
2023-01-17T03:26:39.622Z,99.23
2023-01-17T03:29:06.471Z,99.25
2023-01-17T03:31:33.213Z,99.34
2023-01-17T03:33:59.945Z,99.15
2023-01-17T03:36:26.890Z,98.97
2023-01-17T03:38:53.757Z,99.10
2023-01-17T03:41:20.491Z,99.16
2023-01-17T03:43:47.458Z,99.37
2023-01-17T03:46:25.044Z,99.44
2023-01-17T03:48:52.124Z,99.36
2023-01-17T03:51:19.029Z,99.16
2023-01-17T03:53:48.662Z,98.94
2023-01-17T03:56:15.556Z,98.63
2023-01-17T03:58:42.429Z,98.77
2023-01-17T04:01:09.281Z,98.88
2023-01-17T04:03:36.194Z,98.86
2023-01-17T04:06:02.971Z,98.74
2023-01-17T04:08:30.655Z,98.79
2023-01-17T04:10:57.584Z,99.47
2023-01-17T04:13:24.349Z,100.00
2023-01-17T04:15:51.566Z,100.00
2023-01-17T04:18:18.911Z,99.70
2023-01-17T04:20:45.768Z,98.96
2023-01-17T04:23:12.557Z,98.02
2023-01-17T04:25:39.473Z,97.32
2023-01-17T04:28:06.228Z,97.29
2023-01-17T04:30:33.154Z,97.51
2023-01-17T04:33:00.145Z,97.62
2023-01-17T04:35:27.028Z,97.53
2023-01-17T04:37:53.815Z,97.60
2023-01-17T04:40:20.944Z,97.93
2023-01-17T04:42:48.201Z,97.86
2023-01-17T04:45:15.293Z,97.98
2023-01-17T04:47:42.096Z,98.08
2023-01-17T04:50:09.765Z,98.00
2023-01-17T04:52:36.483Z,98.11
2023-01-17T04:55:03.439Z,98.22
2023-01-17T04:57:30.184Z,98.11
2023-01-17T04:59:57.016Z,98.08
2023-01-17T05:02:24.014Z,97.78
2023-01-17T05:04:50.840Z,97.22
2023-01-17T05:07:17.570Z,96.88
2023-01-17T05:09:44.570Z,97.03
2023-01-17T05:12:11.331Z,97.21
2023-01-17T05:14:38.243Z,97.49
2023-01-17T05:17:05.167Z,97.48
2023-01-17T05:19:32.034Z,96.52
2023-01-17T05:22:04.348Z,95.02
2023-01-17T05:24:31.787Z,94.70
2023-01-17T05:27:03.301Z,94.87
2023-01-17T05:29:30.735Z,95.28
2023-01-17T05:31:57.886Z,95.79
2023-01-17T05:34:24.801Z,95.64
2023-01-17T05:36:51.669Z,94.22
2023-01-17T05:39:18.650Z,92.85
2023-01-17T05:41:46.036Z,92.08
2023-01-17T05:44:13.276Z,91.74
2023-01-17T05:46:40.273Z,91.94
2023-01-17T05:49:07.189Z,91.59
2023-01-17T05:51:37.846Z,92.07
2023-01-17T05:54:05.334Z,92.15
2023-01-17T05:56:32.279Z,92.64
2023-01-17T05:58:59.049Z,93.42
2023-01-17T06:01:26.101Z,93.49
2023-01-17T06:03:52.922Z,93.58
2023-01-17T06:06:19.727Z,93.20
2023-01-17T06:08:46.687Z,92.86
2023-01-17T06:11:13.818Z,92.03
2023-01-17T06:13:40.546Z,91.77
2023-01-17T06:16:07.854Z,90.95
2023-01-17T06:18:35.057Z,90.96
2023-01-17T06:21:02.174Z,91.45
2023-01-17T06:23:29.144Z,91.70
2023-01-17T06:25:56.206Z,92.17
2023-01-17T06:28:23.298Z,92.61
2023-01-17T06:30:50.344Z,92.75
2023-01-17T06:33:17.263Z,92.62
2023-01-17T06:35:48.506Z,92.62
2023-01-17T06:38:15.482Z,93.94
2023-01-17T06:40:42.311Z,94.57
2023-01-17T06:43:09.080Z,95.26
2023-01-17T06:45:35.995Z,95.61
2023-01-17T06:48:04.212Z,95.54
2023-01-17T06:50:31.541Z,94.88
2023-01-17T06:53:00.043Z,94.53
2023-01-17T06:55:30.570Z,94.51
2023-01-17T06:57:57.946Z,94.51
2023-01-17T07:00:25.033Z,93.91
2023-01-17T07:02:52.116Z,92.83
2023-01-17T07:05:19.337Z,91.99
2023-01-17T07:07:46.653Z,91.52
2023-01-17T07:10:13.966Z,91.18
2023-01-17T07:12:40.960Z,91.15
2023-01-17T07:15:08.433Z,91.60
2023-01-17T07:17:35.369Z,91.85
2023-01-17T07:20:02.626Z,92.22
2023-01-17T07:22:29.445Z,93.06
2023-01-17T07:24:58.818Z,93.22
2023-01-17T07:27:27.929Z,93.35
2023-01-17T07:29:54.670Z,93.57
2023-01-17T07:32:21.535Z,93.26
2023-01-17T07:34:49.118Z,93.49
2023-01-17T07:37:15.898Z,94.02
2023-01-17T07:39:42.737Z,92.89
2023-01-17T07:42:09.712Z,92.07
2023-01-17T07:44:36.534Z,91.85
2023-01-17T07:47:04.468Z,91.16
2023-01-17T07:49:31.403Z,90.45
2023-01-17T07:51:58.135Z,90.45
2023-01-17T07:54:24.913Z,90.82
2023-01-17T07:56:51.833Z,90.87
2023-01-17T07:59:18.720Z,91.06
2023-01-17T08:01:45.776Z,90.47
2023-01-17T08:04:13.332Z,90.64
2023-01-17T08:06:40.646Z,90.92
2023-01-17T08:09:07.430Z,91.63
2023-01-17T08:11:34.419Z,92.42
2023-01-17T08:14:01.219Z,93.19
2023-01-17T08:16:29.982Z,93.21
2023-01-17T08:18:57.055Z,92.96
2023-01-17T08:21:24.074Z,92.04
2023-01-17T08:23:51.610Z,92.69
2023-01-17T08:26:22.552Z,92.26
2023-01-17T08:29:00.575Z,91.41
2023-01-17T08:31:31.537Z,90.96
2023-01-17T08:33:58.452Z,90.50
2023-01-17T08:36:29.060Z,90.59
2023-01-17T08:38:55.973Z,90.84
2023-01-17T08:41:23.362Z,90.73
2023-01-17T08:43:50.777Z,90.45
2023-01-17T08:46:18.002Z,90.40
2023-01-17T08:48:44.972Z,90.33
2023-01-17T08:51:11.904Z,90.29
2023-01-17T08:53:38.878Z,90.39
2023-01-17T08:56:06.555Z,91.22
2023-01-17T08:58:34.183Z,92.19
2023-01-17T09:01:05.412Z,93.13
2023-01-17T09:03:32.624Z,94.54
2023-01-17T09:06:13.191Z,95.05
2023-01-17T09:08:40.268Z,95.15
2023-01-17T09:11:11.689Z,93.88
2023-01-17T09:13:38.674Z,91.76
2023-01-17T09:16:05.764Z,90.36
2023-01-17T09:18:33.075Z,90.12
2023-01-17T09:21:00.149Z,90.42
2023-01-17T09:23:27.669Z,90.90
2023-01-17T09:25:58.786Z,90.91
2023-01-17T09:28:26.346Z,91.26
2023-01-17T09:30:53.602Z,91.43
2023-01-17T09:33:20.858Z,91.85
2023-01-17T09:35:47.591Z,92.34
2023-01-17T09:38:14.500Z,92.82
2023-01-17T09:40:46.527Z,92.80
2023-01-17T09:43:27.013Z,96.01
2023-01-17T09:45:53.814Z,99.48
2023-01-17T09:48:31.393Z,100.00
2023-01-17T09:51:03.635Z,100.00
2023-01-17T09:53:31.857Z,100.00
2023-01-17T09:56:01.383Z,99.80
2023-01-17T09:58:47.813Z,96.07
2023-01-17T10:01:52.356Z,94.92
2023-01-17T10:04:30.340Z,94.24
2023-01-17T10:07:00.100Z,93.72
2023-01-17T10:09:29.820Z,94.54
2023-01-17T10:12:21.743Z,95.66
2023-01-17T10:15:12.806Z,95.10
2023-01-17T10:18:29.191Z,94.51
2023-01-17T10:21:05.146Z,93.41
2023-01-17T10:23:39.945Z,93.25
2023-01-17T10:26:16.219Z,91.88
2023-01-17T10:28:51.342Z,90.32
2023-01-17T10:31:25.888Z,90.57
2023-01-17T10:33:58.789Z,90.99
2023-01-17T10:36:27.499Z,90.80
2023-01-17T10:38:56.279Z,91.07
2023-01-17T10:41:32.049Z,90.89
2023-01-17T10:44:07.551Z,91.14
2023-01-17T10:46:47.642Z,91.42
2023-01-17T10:49:20.450Z,91.94
2023-01-17T10:52:05.984Z,92.61
2023-01-17T10:55:04.071Z,93.25
2023-01-17T10:57:39.144Z,93.75
2023-01-17T11:00:18.257Z,94.58
2023-01-17T11:02:47.925Z,96.91
2023-01-17T11:05:20.890Z,100.00
2023-01-17T11:08:17.936Z,100.00
2023-01-17T11:10:54.107Z,100.00
2023-01-17T11:13:32.591Z,100.00
2023-01-17T11:16:04.936Z,98.76
2023-01-17T11:18:33.645Z,96.09
2023-01-17T11:21:21.675Z,94.58
2023-01-17T11:23:50.295Z,93.50
2023-01-17T11:26:30.919Z,92.20
2023-01-17T11:29:23.967Z,92.01
2023-01-17T11:31:50.717Z,92.01
2023-01-17T11:34:18.964Z,92.11
2023-01-17T11:36:45.889Z,93.02
2023-01-17T11:39:18.609Z,93.83
2023-01-17T11:41:49.506Z,93.68
2023-01-17T11:44:33.275Z,92.72
2023-01-17T11:47:12.492Z,92.91
2023-01-17T11:49:43.976Z,93.16
2023-01-17T11:52:23.876Z,93.90
2023-01-17T11:54:50.882Z,93.38
2023-01-17T11:57:33.387Z,93.06
2023-01-17T12:00:03.707Z,94.02
2023-01-17T12:02:43.029Z,95.16
2023-01-17T12:05:41.091Z,95.89
2023-01-17T12:08:17.001Z,96.10
2023-01-17T12:10:52.833Z,96.63
2023-01-17T12:13:42.606Z,99.09
2023-01-17T12:16:33.483Z,100.00
2023-01-17T12:19:06.308Z,100.00
2023-01-17T12:21:51.575Z,100.00
2023-01-17T12:24:46.480Z,100.00
2023-01-17T12:27:13.197Z,100.00
2023-01-17T12:29:47.025Z,98.96
2023-01-17T12:32:53.149Z,98.19
2023-01-17T12:35:30.845Z,98.39
2023-01-17T12:38:05.197Z,98.96
2023-01-17T12:40:49.644Z,99.54
2023-01-17T12:43:24.100Z,99.27
2023-01-17T12:45:51.087Z,97.66
2023-01-17T12:48:19.224Z,96.00
2023-01-17T12:50:58.030Z,96.03
2023-01-17T12:53:30.833Z,98.17
2023-01-17T12:55:57.493Z,99.63
2023-01-17T12:58:26.654Z,99.19
2023-01-17T13:01:19.894Z,97.80
2023-01-17T13:04:07.417Z,96.73
2023-01-17T13:06:46.809Z,96.20
2023-01-17T13:09:15.424Z,95.39
2023-01-17T13:11:46.706Z,94.45
2023-01-17T13:14:13.539Z,95.04
2023-01-17T13:16:43.813Z,94.77
2023-01-17T13:19:37.072Z,97.59
2023-01-17T13:22:06.246Z,100.00
2023-01-17T13:24:45.380Z,100.00
2023-01-17T13:27:34.153Z,100.00
2023-01-17T13:30:43.475Z,100.00
2023-01-17T13:33:22.062Z,100.00
2023-01-17T13:35:58.236Z,100.00
2023-01-17T13:38:55.442Z,100.00
2023-01-17T13:41:52.996Z,99.04
2023-01-17T13:44:27.979Z,96.53
2023-01-17T13:47:27.832Z,92.23
2023-01-17T13:49:56.860Z,88.89
2023-01-17T13:52:26.593Z,88.55
2023-01-17T13:54:54.923Z,88.44
2023-01-17T13:57:29.790Z,88.36
2023-01-17T13:59:57.665Z,88.16
2023-01-17T14:02:33.660Z,88.95
2023-01-17T14:05:20.726Z,90.23
2023-01-17T14:07:49.860Z,91.54
2023-01-17T14:10:57.090Z,92.38
2023-01-17T14:13:36.595Z,92.82
2023-01-17T14:16:24.489Z,93.24
2023-01-17T14:18:51.356Z,93.24
2023-01-17T14:21:24.727Z,93.67
2023-01-17T14:24:11.960Z,93.67
2023-01-17T14:26:41.841Z,94.59
2023-01-17T14:29:44.166Z,94.01
2023-01-17T14:32:12.723Z,94.28
2023-01-17T14:34:39.657Z,94.76
2023-01-17T14:37:33.840Z,94.67
2023-01-17T14:40:00.766Z,92.51
2023-01-17T14:42:29.541Z,91.41
2023-01-17T14:45:18.743Z,91.06
2023-01-17T14:47:46.161Z,90.65
2023-01-17T14:50:23.803Z,90.94
2023-01-17T14:53:18.574Z,91.71
2023-01-17T14:55:48.453Z,92.71
2023-01-17T14:58:18.714Z,93.66
2023-01-17T15:00:50.359Z,96.00
2023-01-17T15:03:17.327Z,97.75
2023-01-17T15:05:47.199Z,98.84
2023-01-17T15:08:14.582Z,99.30
2023-01-17T15:11:00.551Z,99.09
2023-01-17T15:13:43.833Z,98.71
2023-01-17T15:16:26.011Z,96.98
2023-01-17T15:18:53.668Z,96.44
2023-01-17T15:21:22.569Z,96.44
2023-01-17T15:23:52.161Z,97.53
2023-01-17T15:26:21.559Z,98.33
2023-01-17T15:28:48.443Z,98.02
2023-01-17T15:31:25.970Z,98.05
2023-01-17T15:33:55.624Z,97.51
2023-01-17T15:36:33.318Z,97.08
2023-01-17T15:39:39.499Z,96.57
2023-01-17T15:42:08.565Z,96.50
2023-01-17T15:44:52.766Z,95.33
2023-01-17T15:47:31.832Z,94.36
2023-01-17T15:49:59.990Z,94.65
2023-01-17T15:52:26.938Z,95.88
2023-01-17T15:55:11.582Z,96.11
2023-01-17T15:57:39.225Z,95.49
2023-01-17T16:00:21.162Z,94.98
2023-01-17T16:02:59.266Z,95.64
2023-01-17T16:05:27.835Z,96.05
2023-01-17T16:08:04.568Z,96.10
2023-01-17T16:10:36.471Z,96.01
2023-01-17T16:13:04.755Z,96.10
2023-01-17T16:15:31.708Z,96.55
2023-01-17T16:18:09.282Z,96.47
2023-01-17T16:20:38.354Z,94.61
2023-01-17T16:23:05.124Z,92.28
2023-01-17T16:25:34.759Z,89.31
2023-01-17T16:28:02.400Z,88.18
2023-01-17T16:30:29.309Z,88.85
2023-01-17T16:32:57.123Z,90.35
2023-01-17T16:35:27.991Z,90.81
2023-01-17T16:37:58.945Z,90.56
2023-01-17T16:40:27.590Z,89.84
2023-01-17T16:42:57.673Z,89.05
2023-01-17T16:45:25.068Z,89.26
2023-01-17T16:47:52.618Z,88.15
2023-01-17T16:50:22.306Z,88.78
2023-01-17T16:52:50.463Z,89.40
2023-01-17T16:55:17.927Z,89.75
2023-01-17T16:57:44.843Z,89.94
2023-01-17T17:00:12.641Z,85.92
2023-01-17T17:02:40.856Z,83.55
2023-01-17T17:05:08.297Z,84.16
2023-01-17T17:07:43.131Z,84.56
2023-01-17T17:10:14.573Z,85.28
2023-01-17T17:12:41.677Z,86.28
2023-01-17T17:15:09.466Z,86.91
2023-01-17T17:17:37.173Z,87.42
2023-01-17T17:20:05.339Z,87.58
2023-01-17T17:22:32.833Z,88.03
2023-01-17T17:24:59.709Z,88.30
2023-01-17T17:27:27.863Z,87.97
2023-01-17T17:29:54.809Z,88.02
2023-01-17T17:32:21.757Z,88.10
2023-01-17T17:34:50.801Z,88.46
2023-01-17T17:37:17.762Z,88.37
2023-01-17T17:39:47.381Z,87.95
2023-01-17T17:42:15.635Z,88.78
2023-01-17T17:44:42.511Z,89.33
2023-01-17T17:47:13.254Z,89.72
2023-01-17T17:49:40.120Z,90.05
2023-01-17T17:52:07.394Z,90.13
2023-01-17T17:54:34.400Z,90.00
2023-01-17T17:57:01.135Z,90.15
2023-01-17T17:59:28.132Z,90.82
2023-01-17T18:01:54.888Z,90.44
2023-01-17T18:04:22.288Z,90.09
2023-01-17T18:06:49.330Z,89.46
2023-01-17T18:09:16.132Z,90.70
2023-01-17T18:11:43.395Z,90.88
2023-01-17T18:14:13.038Z,90.46
2023-01-17T18:16:41.868Z,89.79
2023-01-17T18:19:17.127Z,89.03
2023-01-17T18:21:43.916Z,88.46
2023-01-17T18:24:14.341Z,88.29
2023-01-17T18:26:43.517Z,88.12
2023-01-17T18:29:12.622Z,88.19
2023-01-17T18:31:39.452Z,88.80
2023-01-17T18:34:08.265Z,89.10
2023-01-17T18:36:35.114Z,89.87
2023-01-17T18:39:02.589Z,90.56
2023-01-17T18:41:30.264Z,90.87
2023-01-17T18:43:57.583Z,90.64
2023-01-17T18:46:26.138Z,90.59
2023-01-17T18:48:55.234Z,90.37
2023-01-17T18:51:22.147Z,89.36
2023-01-17T18:53:48.941Z,88.66
2023-01-17T18:56:18.276Z,88.48
2023-01-17T18:58:46.311Z,88.66
2023-01-17T19:01:23.624Z,88.58
2023-01-17T19:06:30.031Z,89.23
2023-01-17T19:08:57.970Z,89.14
2023-01-17T19:11:24.968Z,89.13
2023-01-17T19:13:52.689Z,89.56
2023-01-17T19:16:24.639Z,89.51
2023-01-17T19:18:52.344Z,89.59
2023-01-17T19:21:21.160Z,89.22
2023-01-17T19:23:48.271Z,89.53
2023-01-17T19:26:17.211Z,89.65
2023-01-17T19:28:45.108Z,89.85
2023-01-17T19:31:13.069Z,89.93
2023-01-17T19:33:40.839Z,89.53
2023-01-17T19:36:09.467Z,89.34
2023-01-17T19:38:36.987Z,88.77
2023-01-17T19:41:30.938Z,89.16
2023-01-17T19:44:01.609Z,89.18
2023-01-17T19:46:28.543Z,89.35
2023-01-17T19:48:56.108Z,89.66
2023-01-17T19:51:23.024Z,89.59
2023-01-17T19:53:49.845Z,89.06
2023-01-17T19:56:18.491Z,88.53
2023-01-17T19:58:45.600Z,88.36
2023-01-17T20:01:19.839Z,87.92
2023-01-17T20:03:46.842Z,88.13
2023-01-17T20:06:16.472Z,87.98
2023-01-17T20:08:43.693Z,87.89
2023-01-17T20:11:21.097Z,87.79
2023-01-17T20:13:48.813Z,87.54
2023-01-17T20:16:15.868Z,87.72
2023-01-17T20:18:43.257Z,87.76
2023-01-17T20:21:17.885Z,87.53
2023-01-17T20:23:47.062Z,86.96
2023-01-17T20:26:25.233Z,86.42
2023-01-17T20:28:52.330Z,86.63
2023-01-17T20:31:23.650Z,87.30
2023-01-17T20:33:51.336Z,87.33
2023-01-17T20:36:19.134Z,87.13
2023-01-17T20:38:45.971Z,87.58
2023-01-17T20:41:39.050Z,87.12
2023-01-17T20:44:06.937Z,86.97
2023-01-17T20:46:40.735Z,87.09
2023-01-17T20:49:14.805Z,87.20
2023-01-17T20:51:42.021Z,87.47
2023-01-17T20:54:10.981Z,87.88
2023-01-17T20:56:38.522Z,87.84
2023-01-17T20:59:09.708Z,87.84
2023-01-17T21:01:36.971Z,88.03
2023-01-17T21:04:04.094Z,88.44
2023-01-17T21:06:31.158Z,88.38
2023-01-17T21:08:59.046Z,88.68
2023-01-17T21:11:26.464Z,88.73
2023-01-17T21:13:53.517Z,89.48
2023-01-17T21:16:23.164Z,89.02
2023-01-17T21:18:50.892Z,88.92
2023-01-17T21:21:22.282Z,88.55
2023-01-17T21:23:49.961Z,88.33
2023-01-17T21:26:17.464Z,88.16
2023-01-17T21:28:45.261Z,88.44
2023-01-17T21:31:23.479Z,88.42
2023-01-17T21:33:55.185Z,88.40
2023-01-17T21:36:23.278Z,88.61
2023-01-17T21:38:52.266Z,88.98
2023-01-17T21:41:23.445Z,88.89
2023-01-17T21:43:53.845Z,88.91
2023-01-17T21:46:20.606Z,89.02
2023-01-17T21:48:47.406Z,89.07
2023-01-17T21:51:14.225Z,89.21
2023-01-17T21:53:40.975Z,89.06
2023-01-17T21:56:30.220Z,89.16
2023-01-17T21:58:57.373Z,89.32
2023-01-17T22:01:26.073Z,89.63
2023-01-17T22:03:53.688Z,89.88
2023-01-17T22:06:23.215Z,89.96
2023-01-17T22:08:50.040Z,90.08
2023-01-17T22:11:21.101Z,90.15
2023-01-17T22:13:47.939Z,89.80
2023-01-17T22:16:16.284Z,89.64
2023-01-17T22:18:43.541Z,88.71
2023-01-17T22:21:21.280Z,88.46
2023-01-17T22:23:53.064Z,88.45
2023-01-17T22:26:20.943Z,88.48
2023-01-17T22:28:47.723Z,88.10
2023-01-17T22:31:14.553Z,88.31
2023-01-17T22:33:42.806Z,88.38
2023-01-17T22:36:10.098Z,88.73
2023-01-17T22:38:36.990Z,88.44
2023-01-17T22:41:08.439Z,88.74
2023-01-17T22:43:40.010Z,88.94
2023-01-17T22:46:07.661Z,88.86
2023-01-17T22:48:34.632Z,89.10
2023-01-17T22:51:02.406Z,89.63
2023-01-17T22:53:29.454Z,89.66
2023-01-17T22:56:06.425Z,89.24
2023-01-17T22:58:33.395Z,89.09
2023-01-17T23:01:07.221Z,88.77
2023-01-17T23:03:34.635Z,88.32
2023-01-17T23:06:09.784Z,88.52
2023-01-17T23:08:37.489Z,88.70
2023-01-17T23:11:32.806Z,88.60
2023-01-17T23:13:59.624Z,89.31
2023-01-17T23:16:44.825Z,89.52
2023-01-17T23:19:23.581Z,89.99
2023-01-17T23:22:14.205Z,89.77
2023-01-17T23:24:43.869Z,89.59
2023-01-17T23:27:32.621Z,89.96
2023-01-17T23:29:59.499Z,90.23
2023-01-17T23:32:26.484Z,90.10
2023-01-17T23:34:53.615Z,89.91
2023-01-17T23:37:20.532Z,88.74
2023-01-17T23:39:47.328Z,87.58
2023-01-17T23:42:32.736Z,87.22
2023-01-17T23:44:59.570Z,87.72
2023-01-17T23:47:26.284Z,87.86
2023-01-17T23:49:53.138Z,87.96
2023-01-17T23:52:19.867Z,88.09
2023-01-17T23:54:48.580Z,87.93
2023-01-17T23:57:15.514Z,88.40
2023-01-17T23:59:42.343Z,88.87
